createdAt,value
2022-09-20T00:01:49.008Z,11.70
2022-09-20T00:04:17.959Z,11.70
2022-09-20T00:06:51.339Z,11.60
2022-09-20T00:09:20.208Z,11.60
2022-09-20T00:11:49.238Z,11.70
2022-09-20T00:14:18.303Z,11.70
2022-09-20T00:16:47.630Z,11.80
2022-09-20T00:19:21.498Z,11.80
2022-09-20T00:21:52.169Z,11.80
2022-09-20T00:24:21.253Z,11.80
2022-09-20T00:26:50.133Z,11.80
2022-09-20T00:29:19.202Z,11.80
2022-09-20T00:31:48.373Z,11.80
2022-09-20T00:34:34.748Z,11.80
2022-09-20T00:37:05.349Z,11.70
2022-09-20T00:39:34.346Z,11.70
2022-09-20T00:42:03.353Z,11.60
2022-09-20T00:44:57.683Z,11.70
2022-09-20T00:47:37.916Z,11.70
2022-09-20T00:50:20.341Z,11.70
2022-09-20T00:52:53.784Z,11.70
2022-09-20T00:55:23.459Z,11.70
2022-09-20T00:57:52.569Z,11.70
2022-09-20T01:00:21.889Z,11.70
2022-09-20T01:02:55.268Z,11.70
2022-09-20T01:05:24.502Z,11.70
2022-09-20T01:07:55.880Z,11.80
2022-09-20T01:10:25.570Z,11.70
2022-09-20T01:12:55.480Z,11.80
2022-09-20T01:15:28.659Z,11.90
2022-09-20T01:17:59.770Z,11.90
2022-09-20T01:20:32.077Z,11.90
2022-09-20T01:23:36.873Z,11.90
2022-09-20T01:26:35.748Z,11.90
2022-09-20T01:29:15.326Z,11.90
2022-09-20T01:31:49.086Z,11.80
2022-09-20T01:34:23.299Z,11.90
2022-09-20T01:36:56.504Z,12.00
2022-09-20T01:39:36.041Z,12.00
2022-09-20T01:42:09.100Z,12.00
2022-09-20T01:44:44.155Z,12.10
2022-09-20T01:47:23.914Z,12.10
2022-09-20T01:49:58.946Z,12.10
2022-09-20T01:52:56.556Z,12.10
2022-09-20T01:55:55.095Z,12.10
2022-09-20T01:59:30.407Z,12.10
2022-09-20T02:02:26.708Z,12.00
2022-09-20T02:05:19.405Z,12.00
2022-09-20T02:08:22.725Z,12.10
2022-09-20T02:13:33.183Z,12.00
2022-09-20T02:16:38.632Z,12.10
2022-09-20T02:19:34.620Z,12.10
2022-09-20T02:22:21.971Z,12.10
2022-09-20T02:25:00.239Z,12.20
2022-09-20T02:27:37.751Z,12.20
2022-09-20T02:30:17.135Z,12.10
2022-09-20T02:33:05.378Z,12.10
2022-09-20T02:35:53.855Z,12.10
2022-09-20T02:38:43.365Z,12.10
2022-09-20T02:41:31.353Z,12.10
2022-09-20T02:44:05.117Z,12.10
2022-09-20T02:46:42.875Z,12.10
2022-09-20T02:49:20.007Z,12.20
2022-09-20T02:51:56.444Z,12.10
2022-09-20T02:54:35.611Z,12.10
2022-09-20T02:57:16.024Z,12.00
2022-09-20T02:59:54.791Z,12.10
2022-09-20T03:02:29.138Z,12.00
2022-09-20T03:05:09.986Z,12.10
2022-09-20T03:07:49.752Z,12.10
2022-09-20T03:10:24.346Z,12.10
2022-09-20T03:13:08.042Z,12.10
2022-09-20T03:15:54.379Z,12.00
2022-09-20T03:18:35.256Z,12.10
2022-09-20T03:21:13.735Z,12.10
2022-09-20T03:23:59.276Z,12.10
2022-09-20T03:26:42.769Z,12.10
2022-09-20T03:29:24.096Z,12.10
2022-09-20T03:32:06.963Z,12.10
2022-09-20T03:34:51.174Z,12.00
2022-09-20T03:37:43.282Z,12.00
2022-09-20T03:40:52.706Z,12.10
2022-09-20T03:43:39.646Z,12.00
2022-09-20T03:46:20.629Z,12.00
2022-09-20T03:49:14.719Z,12.00
2022-09-20T03:51:51.459Z,12.00
2022-09-20T03:54:48.828Z,12.00
2022-09-20T03:57:40.655Z,12.10
2022-09-20T04:00:24.252Z,12.20
2022-09-20T04:03:20.919Z,12.20
2022-09-20T04:06:01.962Z,12.10
2022-09-20T04:08:51.655Z,12.10
2022-09-20T04:11:27.435Z,12.10
2022-09-20T04:14:10.631Z,12.10
2022-09-20T04:16:46.898Z,12.10
2022-09-20T04:19:26.789Z,12.10
2022-09-20T04:21:59.540Z,12.20
2022-09-20T04:24:42.471Z,12.20
2022-09-20T04:27:17.070Z,12.20
2022-09-20T04:29:55.482Z,12.20
2022-09-20T04:32:31.180Z,12.20
2022-09-20T04:35:23.715Z,12.20
2022-09-20T04:37:53.465Z,12.30
2022-09-20T04:40:33.061Z,12.40
2022-09-20T04:43:42.417Z,12.40
2022-09-20T04:46:52.802Z,12.40
2022-09-20T04:49:57.748Z,12.40
2022-09-20T04:53:05.333Z,12.50
2022-09-20T04:55:56.104Z,12.50
2022-09-20T04:58:53.667Z,12.50
2022-09-20T05:02:10.329Z,12.50
2022-09-20T05:05:12.358Z,12.60
2022-09-20T05:08:19.445Z,12.70
2022-09-20T05:11:30.809Z,12.70
2022-09-20T05:14:18.711Z,12.70
2022-09-20T05:17:07.841Z,12.90
2022-09-20T05:19:54.840Z,12.90
2022-09-20T05:22:54.138Z,12.80
2022-09-20T05:25:40.959Z,12.90
2022-09-20T05:28:21.815Z,12.90
2022-09-20T05:30:57.051Z,12.90
2022-09-20T05:33:34.237Z,13.00
2022-09-20T05:36:08.873Z,13.00
2022-09-20T05:38:48.980Z,13.00
2022-09-20T05:41:32.128Z,13.00
2022-09-20T05:44:13.114Z,13.10
2022-09-20T05:46:56.579Z,13.10
2022-09-20T05:49:41.106Z,13.00
2022-09-20T05:52:27.439Z,13.20
2022-09-20T05:55:23.620Z,13.20
2022-09-20T05:58:17.823Z,13.20
2022-09-20T06:00:53.018Z,13.30
2022-09-20T06:03:32.107Z,13.40
2022-09-20T06:06:09.985Z,13.30
2022-09-20T06:09:12.235Z,13.40
2022-09-20T06:12:03.879Z,13.50
2022-09-20T06:14:45.615Z,13.60
2022-09-20T06:17:25.624Z,13.80
2022-09-20T06:20:10.714Z,13.80
2022-09-20T06:22:45.274Z,14.00
2022-09-20T06:25:21.302Z,13.90
2022-09-20T06:27:54.176Z,14.00
2022-09-20T06:30:27.899Z,14.00
2022-09-20T06:32:58.990Z,14.20
2022-09-20T06:35:37.835Z,14.40
2022-09-20T06:38:47.035Z,14.50
2022-09-20T06:41:31.224Z,14.30
2022-09-20T06:44:01.583Z,14.10
2022-09-20T06:46:31.791Z,14.10
2022-09-20T06:49:01.540Z,14.10
2022-09-20T06:51:38.629Z,14.30
2022-09-20T06:54:09.338Z,14.60
2022-09-20T06:56:38.802Z,14.80
2022-09-20T06:59:08.794Z,14.80
2022-09-20T07:01:38.093Z,14.80
2022-09-20T07:04:07.673Z,14.90
2022-09-20T07:06:38.411Z,15.00
2022-09-20T07:09:07.950Z,15.10
2022-09-20T07:11:37.136Z,14.90
2022-09-20T07:14:08.244Z,14.90
2022-09-20T07:16:37.608Z,14.90
2022-09-20T07:19:07.003Z,14.90
2022-09-20T07:21:37.577Z,14.90
2022-09-20T07:24:07.877Z,14.90
2022-09-20T07:26:37.489Z,15.20
2022-09-20T07:29:07.069Z,15.30
2022-09-20T07:31:36.011Z,15.60
2022-09-20T07:34:04.901Z,15.70
2022-09-20T07:36:33.895Z,15.60
2022-09-20T07:39:04.255Z,15.60
2022-09-20T07:41:33.229Z,15.60
2022-09-20T07:44:21.242Z,15.50
2022-09-20T07:46:50.632Z,15.60
2022-09-20T07:49:20.125Z,15.60
2022-09-20T07:51:49.192Z,15.80
2022-09-20T07:54:19.856Z,16.20
2022-09-20T07:56:49.230Z,16.50
2022-09-20T07:59:19.702Z,16.50
2022-09-20T08:01:48.707Z,16.90
2022-09-20T08:04:17.895Z,17.40
2022-09-20T08:06:47.468Z,17.40
2022-09-20T08:09:16.423Z,17.50
2022-09-20T08:11:47.784Z,17.40
2022-09-20T08:14:20.059Z,17.30
2022-09-20T08:16:52.192Z,17.20
2022-09-20T08:19:24.351Z,17.20
2022-09-20T08:21:55.109Z,17.30
2022-09-20T08:24:27.797Z,17.30
2022-09-20T08:26:59.227Z,17.10
2022-09-20T08:29:28.320Z,16.70
2022-09-20T08:31:58.630Z,16.80
2022-09-20T08:34:27.668Z,16.90
2022-09-20T08:36:56.923Z,16.70
2022-09-20T08:42:33.347Z,16.90
2022-09-20T08:45:06.521Z,17.00
2022-09-20T08:47:38.609Z,17.10
2022-09-20T08:50:11.457Z,17.10
2022-09-20T08:52:41.998Z,17.10
2022-09-20T08:55:17.218Z,17.10
2022-09-20T08:57:51.176Z,17.30
2022-09-20T09:00:22.757Z,17.30
2022-09-20T09:02:54.126Z,17.30
2022-09-20T09:05:33.408Z,17.40
2022-09-20T09:08:05.533Z,17.20
2022-09-20T09:10:45.382Z,16.90
2022-09-20T09:13:25.971Z,16.50
2022-09-20T09:15:59.267Z,16.30
2022-09-20T09:18:35.412Z,16.20
2022-09-20T09:21:05.763Z,16.50
2022-09-20T09:23:43.009Z,16.60
2022-09-20T09:26:23.294Z,16.90
2022-09-20T09:29:24.593Z,16.70
2022-09-20T09:32:27.284Z,16.90
2022-09-20T09:35:24.031Z,17.00
2022-09-20T09:37:57.997Z,17.10
2022-09-20T09:40:28.001Z,17.20
2022-09-20T09:42:59.268Z,17.40
2022-09-20T09:45:33.522Z,17.60
2022-09-20T09:48:04.831Z,17.70
2022-09-20T09:50:35.636Z,18.00
2022-09-20T09:53:12.702Z,17.80
2022-09-20T09:55:58.449Z,17.90
2022-09-20T09:58:42.025Z,17.70
2022-09-20T10:01:33.108Z,17.20
2022-09-20T10:04:12.347Z,16.70
2022-09-20T10:06:52.211Z,17.00
2022-09-20T10:09:36.571Z,17.40
2022-09-20T10:12:22.695Z,17.40
2022-09-20T10:15:11.069Z,17.70
2022-09-20T10:17:57.786Z,17.70
2022-09-20T10:20:45.563Z,18.20
2022-09-20T10:23:51.503Z,18.10
2022-09-20T10:26:26.742Z,18.10
2022-09-20T10:29:05.831Z,18.60
2022-09-20T10:31:45.531Z,18.40
2022-09-20T10:35:02.291Z,18.00
2022-09-20T10:37:49.055Z,18.40
2022-09-20T10:40:51.414Z,18.50
2022-09-20T10:43:37.035Z,18.50
2022-09-20T10:46:33.356Z,18.00
2022-09-20T10:49:16.489Z,18.00
2022-09-20T10:51:55.870Z,17.70
2022-09-20T10:54:42.399Z,17.70
2022-09-20T10:57:26.317Z,18.10
2022-09-20T11:00:04.179Z,18.50
2022-09-20T11:02:47.945Z,18.60
2022-09-20T11:05:38.729Z,17.90
2022-09-20T11:08:13.628Z,17.40
2022-09-20T11:10:46.874Z,16.90
2022-09-20T11:13:25.661Z,17.20
2022-09-20T11:16:01.309Z,17.70
2022-09-20T11:18:39.389Z,18.10
2022-09-20T11:21:14.410Z,18.50
2022-09-20T11:23:51.559Z,19.20
2022-09-20T11:26:28.440Z,19.40
2022-09-20T11:29:04.641Z,19.10
2022-09-20T11:31:39.113Z,18.80
2022-09-20T11:34:16.221Z,18.30
2022-09-20T11:36:54.932Z,17.90
2022-09-20T11:39:30.420Z,17.60
2022-09-20T11:42:03.530Z,17.40
2022-09-20T11:44:32.874Z,17.30
2022-09-20T11:47:06.057Z,17.10
2022-09-20T11:49:42.556Z,17.10
2022-09-20T11:52:39.121Z,17.20
2022-09-20T11:55:35.712Z,17.40
2022-09-20T11:58:08.550Z,17.30
2022-09-20T12:00:41.657Z,17.30
2022-09-20T12:03:37.810Z,17.60
2022-09-20T12:06:09.312Z,17.80
2022-09-20T12:08:41.491Z,18.10
2022-09-20T12:11:15.362Z,18.10
2022-09-20T12:13:56.633Z,18.00
2022-09-20T12:16:40.988Z,17.90
2022-09-20T12:19:14.620Z,18.00
2022-09-20T12:22:18.977Z,18.10
2022-09-20T12:25:11.688Z,18.20
2022-09-20T12:28:00.118Z,18.00
2022-09-20T12:30:33.718Z,18.00
2022-09-20T12:33:04.531Z,18.00
2022-09-20T12:36:27.300Z,17.90
2022-09-20T12:39:04.029Z,17.90
2022-09-20T12:41:50.202Z,18.00
2022-09-20T12:44:33.118Z,18.00
2022-09-20T12:47:10.025Z,17.70
2022-09-20T12:50:02.023Z,17.90
2022-09-20T12:53:01.459Z,17.80
2022-09-20T12:55:53.639Z,18.00
2022-09-20T12:58:29.353Z,18.20
2022-09-20T13:01:34.864Z,18.40
2022-09-20T13:04:56.282Z,18.40
2022-09-20T13:07:59.983Z,18.40
2022-09-20T13:10:33.032Z,18.60
2022-09-20T13:13:07.911Z,18.40
2022-09-20T13:15:41.303Z,18.40
2022-09-20T13:18:15.797Z,18.60
2022-09-20T13:20:45.487Z,18.80
2022-09-20T13:23:27.169Z,18.70
2022-09-20T13:25:59.280Z,18.80
2022-09-20T13:28:36.608Z,19.10
2022-09-20T13:31:36.314Z,19.20
2022-09-20T13:34:22.680Z,19.50
2022-09-20T13:36:56.317Z,19.40
2022-09-20T13:39:35.504Z,19.30
2022-09-20T13:42:12.172Z,19.20
2022-09-20T13:44:43.398Z,19.10
2022-09-20T13:47:29.683Z,18.80
2022-09-20T13:50:17.742Z,18.70
2022-09-20T13:52:48.219Z,18.20
2022-09-20T13:55:40.080Z,17.80
2022-09-20T13:58:11.393Z,17.50
2022-09-20T14:00:50.144Z,17.20
2022-09-20T14:03:21.225Z,16.80
2022-09-20T14:05:52.208Z,16.70
2022-09-20T14:08:26.549Z,16.60
2022-09-20T14:11:08.680Z,16.50
2022-09-20T14:13:42.335Z,16.40
2022-09-20T14:16:12.860Z,16.40
2022-09-20T14:18:43.770Z,16.50
2022-09-20T14:21:13.946Z,16.60
2022-09-20T14:23:52.866Z,16.60
2022-09-20T14:26:28.159Z,16.60
2022-09-20T14:28:58.599Z,16.50
2022-09-20T14:31:31.556Z,16.30
2022-09-20T14:34:02.625Z,16.40
2022-09-20T14:36:33.077Z,16.30
2022-09-20T14:39:05.569Z,16.30
2022-09-20T14:41:40.546Z,16.20
2022-09-20T14:44:31.579Z,16.10
2022-09-20T14:47:01.060Z,16.10
2022-09-20T14:49:35.157Z,16.00
2022-09-20T14:52:39.813Z,15.90
2022-09-20T14:55:33.770Z,15.90
2022-09-20T14:58:09.971Z,15.80
2022-09-20T15:00:51.062Z,15.70
2022-09-20T15:03:29.302Z,15.70
2022-09-20T15:05:59.498Z,15.70
2022-09-20T15:08:33.243Z,15.70
2022-09-20T15:11:03.009Z,15.80
2022-09-20T15:13:36.611Z,15.80
2022-09-20T15:16:05.612Z,15.70
2022-09-20T15:18:41.482Z,15.70
2022-09-20T15:21:11.467Z,15.70
2022-09-20T15:23:40.834Z,15.60
2022-09-20T15:26:12.295Z,15.60
2022-09-20T15:28:43.216Z,15.60
2022-09-20T15:31:13.996Z,15.50
2022-09-20T15:33:45.906Z,15.30
2022-09-20T15:36:15.323Z,15.30
2022-09-20T15:38:44.287Z,15.20
2022-09-20T15:41:13.399Z,15.10
2022-09-20T15:43:44.327Z,15.00
2022-09-20T15:46:21.293Z,14.90
2022-09-20T15:48:50.729Z,14.80
2022-09-20T15:51:19.974Z,14.70
2022-09-20T15:53:55.708Z,14.70
2022-09-20T15:56:27.021Z,14.60
2022-09-20T15:59:01.089Z,14.40
2022-09-20T16:01:34.416Z,14.40
2022-09-20T16:04:07.692Z,14.30
2022-09-20T16:06:37.597Z,14.20
2022-09-20T16:09:07.834Z,14.20
2022-09-20T16:11:39.053Z,14.00
2022-09-20T16:14:10.209Z,13.90
2022-09-20T16:16:40.927Z,13.80
2022-09-20T16:19:21.017Z,13.70
2022-09-20T16:21:57.681Z,13.60
2022-09-20T16:24:28.955Z,13.50
2022-09-20T16:26:59.498Z,13.40
2022-09-20T16:29:34.550Z,13.20
2022-09-20T16:32:05.828Z,13.20
2022-09-20T16:34:36.632Z,13.10
2022-09-20T16:37:08.245Z,12.90
2022-09-20T16:39:37.329Z,12.80
2022-09-20T16:42:09.131Z,12.70
2022-09-20T16:44:41.069Z,12.60
2022-09-20T16:47:14.248Z,12.50
2022-09-20T16:49:43.581Z,12.40
2022-09-20T16:52:13.571Z,12.30
2022-09-20T16:54:42.720Z,12.20
2022-09-20T16:57:13.676Z,12.10
2022-09-20T16:59:44.670Z,12.10
2022-09-20T17:02:14.557Z,12.00
2022-09-20T17:04:44.282Z,11.90
2022-09-20T17:07:13.377Z,11.80
2022-09-20T17:09:42.380Z,11.80
2022-09-20T17:12:11.498Z,11.70
2022-09-20T17:14:40.434Z,11.60
2022-09-20T17:17:11.044Z,11.60
2022-09-20T17:19:40.062Z,11.50
2022-09-20T17:22:09.585Z,11.50
2022-09-20T17:24:39.945Z,11.40
2022-09-20T17:27:09.878Z,11.40
2022-09-20T17:29:38.867Z,11.30
2022-09-20T17:32:08.305Z,11.20
2022-09-20T17:34:39.476Z,11.20
2022-09-20T17:37:08.572Z,11.10
2022-09-20T17:39:37.422Z,11.10
2022-09-20T17:42:06.883Z,11.00
2022-09-20T17:44:37.984Z,11.00
2022-09-20T17:47:08.439Z,10.90
2022-09-20T17:49:40.964Z,10.90
2022-09-20T17:52:11.544Z,10.90
2022-09-20T17:54:40.816Z,10.80
2022-09-20T17:57:09.815Z,10.80
2022-09-20T17:59:38.788Z,10.80
2022-09-20T18:02:07.783Z,10.70
2022-09-20T18:04:36.966Z,10.70
2022-09-20T18:07:07.317Z,10.70
2022-09-20T18:09:36.527Z,10.70
2022-09-20T18:12:06.975Z,10.70
2022-09-20T18:14:39.807Z,10.60
2022-09-20T18:17:09.470Z,10.60
2022-09-20T18:19:40.439Z,10.60
2022-09-20T18:22:10.983Z,10.60
2022-09-20T18:24:40.953Z,10.60
2022-09-20T18:27:10.022Z,10.60
2022-09-20T18:29:39.338Z,10.70
2022-09-20T18:32:08.989Z,10.80
2022-09-20T18:34:38.921Z,11.00
2022-09-20T18:37:13.772Z,11.20
2022-09-20T18:39:45.398Z,11.30
2022-09-20T18:42:14.408Z,11.40
2022-09-20T18:44:44.783Z,11.60
2022-09-20T18:47:13.861Z,11.70
2022-09-20T18:49:42.815Z,11.80
2022-09-20T18:52:13.434Z,11.90
2022-09-20T18:54:44.458Z,11.80
2022-09-20T18:57:13.951Z,11.80
2022-09-20T18:59:53.604Z,11.70
2022-09-20T19:02:52.339Z,11.50
2022-09-20T19:05:29.533Z,11.30
2022-09-20T19:08:11.096Z,11.10
2022-09-20T19:10:49.209Z,11.00
2022-09-20T19:13:36.020Z,10.90
2022-09-20T19:16:18.859Z,10.80
2022-09-20T19:19:11.435Z,10.70
2022-09-20T19:21:49.069Z,10.70
2022-09-20T19:24:29.756Z,10.60
2022-09-20T19:27:00.578Z,10.60
2022-09-20T19:29:31.463Z,10.50
2022-09-20T19:32:02.142Z,10.50
2022-09-20T19:34:33.037Z,10.40
2022-09-20T19:37:10.572Z,10.30
2022-09-20T19:39:51.609Z,10.30
2022-09-20T19:42:29.471Z,10.30
2022-09-20T19:45:08.929Z,10.20
2022-09-20T19:47:48.810Z,10.20
2022-09-20T19:50:28.268Z,10.10
2022-09-20T19:52:57.961Z,10.10
2022-09-20T19:55:28.195Z,10.00
2022-09-20T19:58:00.600Z,10.00
2022-09-20T20:00:31.384Z,10.00
2022-09-20T20:03:01.526Z,10.00
2022-09-20T20:05:31.256Z,10.00
2022-09-20T20:08:18.300Z,9.90
2022-09-20T20:11:00.729Z,9.80
2022-09-20T20:13:56.231Z,9.80
2022-09-20T20:16:29.409Z,9.80
2022-09-20T20:19:10.654Z,9.80
2022-09-20T20:21:56.139Z,9.70
2022-09-20T20:24:52.114Z,9.70
2022-09-20T20:27:22.460Z,9.70
2022-09-20T20:29:52.887Z,9.70
2022-09-20T20:32:21.897Z,9.60
2022-09-20T20:34:52.106Z,9.60
2022-09-20T20:37:24.839Z,9.60
2022-09-20T20:39:54.714Z,9.60
2022-09-20T20:42:24.016Z,9.60
2022-09-20T20:44:56.552Z,9.50
2022-09-20T20:47:25.770Z,9.50
2022-09-20T20:49:55.425Z,9.40
2022-09-20T20:52:24.358Z,9.40
2022-09-20T20:54:53.288Z,9.40
2022-09-20T20:57:22.337Z,9.40
2022-09-20T20:59:51.359Z,9.40
2022-09-20T21:02:22.024Z,9.30
2022-09-20T21:04:50.966Z,9.30
2022-09-20T21:07:19.972Z,9.30
2022-09-20T21:09:52.528Z,9.30
2022-09-20T21:12:23.038Z,9.30
2022-09-20T21:14:54.331Z,9.20
2022-09-20T21:17:24.928Z,9.20
2022-09-20T21:19:54.058Z,9.20
2022-09-20T21:22:23.902Z,9.20
2022-09-20T21:24:53.544Z,9.30
2022-09-20T21:27:24.950Z,9.30
2022-09-20T21:29:54.968Z,9.40
2022-09-20T21:32:26.699Z,9.50
2022-09-20T21:34:55.919Z,9.50
2022-09-20T21:37:36.351Z,9.50
2022-09-20T21:40:25.489Z,9.60
2022-09-20T21:43:29.861Z,9.70
2022-09-20T21:49:41.562Z,9.90
2022-09-20T21:52:12.043Z,10.00
2022-09-20T21:54:41.003Z,10.10
2022-09-20T21:57:34.241Z,10.10
2022-09-20T22:03:29.277Z,10.00
2022-09-20T22:09:03.590Z,10.00
2022-09-20T22:11:34.834Z,10.10
2022-09-20T22:14:04.163Z,10.10
2022-09-20T22:16:34.561Z,10.20
2022-09-20T22:19:03.980Z,10.30
2022-09-20T22:21:37.072Z,10.40
2022-09-20T22:24:08.689Z,10.40
2022-09-20T22:26:39.440Z,10.50
2022-09-20T22:29:09.812Z,10.60
2022-09-20T22:31:41.729Z,10.60
2022-09-20T22:34:10.754Z,10.60
2022-09-20T22:36:43.993Z,10.70
2022-09-20T22:39:14.195Z,10.60
2022-09-20T22:41:43.856Z,10.70
2022-09-20T22:44:13.687Z,10.70
2022-09-20T22:46:43.166Z,10.80
2022-09-20T22:49:12.167Z,10.80
2022-09-20T22:51:42.799Z,10.80
2022-09-20T22:54:13.208Z,10.90
2022-09-20T22:56:42.835Z,10.90
2022-09-20T22:59:13.525Z,10.90
2022-09-20T23:01:44.119Z,11.00
2022-09-20T23:04:14.777Z,11.00
2022-09-20T23:06:47.319Z,11.00
2022-09-20T23:09:18.404Z,11.00
2022-09-20T23:11:47.965Z,11.10
2022-09-20T23:14:18.833Z,11.10
2022-09-20T23:17:02.389Z,11.10
2022-09-20T23:19:31.478Z,11.10
2022-09-20T23:22:01.938Z,11.10
2022-09-20T23:24:31.617Z,11.10
2022-09-20T23:27:00.582Z,11.10
2022-09-20T23:29:29.976Z,11.20
2022-09-20T23:31:58.956Z,11.20
2022-09-20T23:34:28.243Z,11.20
2022-09-20T23:36:57.611Z,11.20
2022-09-20T23:39:28.996Z,11.20
2022-09-20T23:41:57.899Z,11.30
2022-09-20T23:44:26.882Z,11.30
2022-09-20T23:46:55.993Z,11.30
2022-09-20T23:49:25.060Z,11.30
2022-09-20T23:51:54.050Z,11.30
2022-09-20T23:54:23.048Z,11.40
2022-09-20T23:56:53.681Z,11.30
2022-09-20T23:59:22.659Z,11.30
